createdAt,value
2017-11-03T00:00:48.952Z,0
2017-11-03T00:01:48.922Z,0
2017-11-03T00:02:48.243Z,0
2017-11-03T00:03:48.550Z,0
2017-11-03T00:04:48.879Z,0
2017-11-03T00:05:48.191Z,0
2017-11-03T00:06:48.169Z,0
2017-11-03T00:07:47.822Z,0
2017-11-03T00:08:48.812Z,0
2017-11-03T00:09:47.794Z,0
2017-11-03T00:10:48.105Z,0
2017-11-03T00:11:48.086Z,0
2017-11-03T00:12:48.415Z,0
2017-11-03T00:13:48.070Z,0
2017-11-03T00:14:48.367Z,0
2017-11-03T00:15:48.013Z,0
2017-11-03T00:16:47.666Z,0
2017-11-03T00:17:48.323Z,0
2017-11-03T00:18:48.641Z,0
2017-11-03T00:19:48.284Z,0
2017-11-03T00:20:47.936Z,0
2017-11-03T00:21:48.588Z,0
2017-11-03T00:22:47.901Z,0
2017-11-03T00:23:48.222Z,0
2017-11-03T00:24:48.746Z,0
2017-11-03T00:25:48.183Z,0
2017-11-03T00:26:48.225Z,0
2017-11-03T00:27:48.492Z,0
2017-11-03T00:28:47.797Z,0
2017-11-03T00:29:48.120Z,0
2017-11-03T00:30:48.102Z,0
2017-11-03T00:31:48.079Z,0
2017-11-03T00:32:48.060Z,0
2017-11-03T00:33:48.059Z,0
2017-11-03T00:34:47.701Z,0
2017-11-03T00:35:47.678Z,0
2017-11-03T00:36:48.332Z,0
2017-11-03T00:37:47.980Z,0
2017-11-03T00:38:47.636Z,0
2017-11-03T00:39:47.279Z,0
2017-11-03T00:40:47.927Z,0
2017-11-03T00:41:47.918Z,0
2017-11-03T00:42:48.227Z,0
2017-11-03T00:43:48.213Z,0
2017-11-03T00:44:47.529Z,0
2017-11-03T00:45:47.183Z,0
2017-11-03T00:46:47.830Z,0
2017-11-03T00:47:47.493Z,0
2017-11-03T00:48:47.799Z,0
2017-11-03T00:49:48.112Z,0
2017-11-03T00:50:47.445Z,0
2017-11-03T00:51:47.801Z,0
2017-11-03T00:52:47.728Z,0
2017-11-03T00:53:47.383Z,0
2017-11-03T00:54:47.023Z,0
2017-11-03T00:55:47.683Z,0
2017-11-03T00:56:47.331Z,0
2017-11-03T00:57:47.650Z,0
2017-11-03T00:58:47.632Z,0
2017-11-03T00:59:47.612Z,0
2017-11-03T01:00:47.598Z,0
2017-11-03T01:01:47.911Z,0
2017-11-03T01:02:47.574Z,0
2017-11-03T01:03:47.569Z,0
2017-11-03T01:04:47.534Z,0
2017-11-03T01:05:46.841Z,0
2017-11-03T01:06:46.829Z,0
2017-11-03T01:07:47.497Z,0
2017-11-03T01:08:47.129Z,0
2017-11-03T01:09:47.458Z,0
2017-11-03T01:10:47.093Z,0
2017-11-03T01:11:47.077Z,0
2017-11-03T01:12:47.749Z,0
2017-11-03T01:13:47.715Z,0
2017-11-03T01:14:47.692Z,0
2017-11-03T01:15:47.344Z,0
2017-11-03T01:16:47.001Z,0
2017-11-03T01:17:46.979Z,0
2017-11-03T01:18:47.300Z,0
2017-11-03T01:19:47.624Z,0
2017-11-03T01:20:47.258Z,0
2017-11-03T01:21:47.247Z,0
2017-11-03T01:22:47.224Z,0
2017-11-03T01:23:47.551Z,0
2017-11-03T01:24:47.200Z,0
2017-11-03T01:25:47.177Z,0
2017-11-03T01:26:47.161Z,0
2017-11-03T01:27:47.477Z,0
2017-11-03T01:28:47.133Z,0
2017-11-03T01:29:47.114Z,0
2017-11-03T01:30:46.755Z,0
2017-11-03T01:31:47.420Z,0
2017-11-03T01:32:47.059Z,0
2017-11-03T01:33:47.047Z,0
2017-11-03T01:34:47.031Z,0
2017-11-03T01:35:46.676Z,0
2017-11-03T01:36:46.996Z,0
2017-11-03T01:37:47.251Z,0
2017-11-03T01:38:47.291Z,0
2017-11-03T01:39:46.939Z,0
2017-11-03T01:40:46.932Z,0
2017-11-03T01:41:47.241Z,0
2017-11-03T01:42:46.564Z,0
2017-11-03T01:43:46.550Z,0
2017-11-03T01:44:46.871Z,0
2017-11-03T01:45:46.177Z,0
2017-11-03T01:46:46.823Z,0
2017-11-03T01:47:46.498Z,0
2017-11-03T01:48:47.134Z,0
2017-11-03T01:49:46.111Z,0
2017-11-03T01:50:47.093Z,0
2017-11-03T01:51:46.744Z,0
2017-11-03T01:52:46.396Z,0
2017-11-03T01:53:46.377Z,0
2017-11-03T01:54:46.353Z,0
2017-11-03T01:55:46.680Z,0
2017-11-03T01:56:46.991Z,0
2017-11-03T01:57:46.980Z,0
2017-11-03T01:58:46.628Z,0
2017-11-03T01:59:46.274Z,0
2017-11-03T02:00:46.591Z,0
2017-11-03T02:01:46.910Z,0
2017-11-03T02:02:46.241Z,0
2017-11-03T02:03:45.875Z,0
2017-11-03T02:04:46.194Z,0
2017-11-03T02:05:46.505Z,0
2017-11-03T02:06:46.495Z,0
2017-11-03T02:07:46.197Z,0
2017-11-03T02:08:46.120Z,0
2017-11-03T02:09:46.105Z,0
2017-11-03T02:10:46.417Z,0
2017-11-03T02:11:46.413Z,0
2017-11-03T02:12:46.057Z,0
2017-11-03T02:13:46.716Z,0
2017-11-03T02:14:46.368Z,0
2017-11-03T02:15:46.010Z,0
2017-11-03T02:16:46.660Z,0
2017-11-03T02:17:45.979Z,0
2017-11-03T02:18:46.302Z,0
2017-11-03T02:19:46.277Z,0
2017-11-03T02:20:46.594Z,0
2017-11-03T02:21:45.907Z,0
2017-11-03T02:22:45.901Z,0
2017-11-03T02:23:45.930Z,0
2017-11-03T02:24:46.190Z,0
2017-11-03T02:25:45.846Z,0
2017-11-03T02:26:46.170Z,0
2017-11-03T02:27:45.818Z,0
2017-11-03T02:28:45.794Z,0
2017-11-03T02:29:46.113Z,0
2017-11-03T02:30:46.443Z,0
2017-11-03T02:31:46.083Z,0
2017-11-03T02:32:46.067Z,0
2017-11-03T02:33:46.045Z,0
2017-11-03T02:34:45.694Z,0
2017-11-03T02:35:46.347Z,0
2017-11-03T02:36:45.994Z,0
2017-11-03T02:37:45.982Z,0
2017-11-03T02:38:46.292Z,0
2017-11-03T02:39:45.949Z,0
2017-11-03T02:40:46.254Z,0
2017-11-03T02:41:46.247Z,0
2017-11-03T02:42:45.896Z,0
2017-11-03T02:43:45.878Z,0
2017-11-03T02:44:45.871Z,0
2017-11-03T02:45:45.849Z,0
2017-11-03T02:46:45.495Z,0
2017-11-03T02:47:45.810Z,0
2017-11-03T02:48:45.801Z,0
2017-11-03T02:49:46.116Z,0
2017-11-03T02:50:45.099Z,0
2017-11-03T02:51:45.083Z,0
2017-11-03T02:52:46.066Z,0
2017-11-03T02:53:45.712Z,0
2017-11-03T02:54:46.039Z,0
2017-11-03T02:55:45.350Z,0
2017-11-03T02:56:45.998Z,0
2017-11-03T02:57:45.649Z,0
2017-11-03T02:58:44.968Z,0
2017-11-03T02:59:45.955Z,0
2017-11-03T03:00:45.267Z,0
2017-11-03T03:01:45.583Z,0
2017-11-03T03:02:44.898Z,0
2017-11-03T03:03:45.553Z,0
2017-11-03T03:04:45.869Z,0
2017-11-03T03:05:45.857Z,0
2017-11-03T03:06:45.833Z,0
2017-11-03T03:07:45.152Z,0
2017-11-03T03:08:45.138Z,0
2017-11-03T03:09:45.124Z,0
2017-11-03T03:10:45.772Z,0
2017-11-03T03:11:45.430Z,0
2017-11-03T03:12:45.074Z,0
2017-11-03T03:13:45.050Z,0
2017-11-03T03:14:45.039Z,0
2017-11-03T03:15:45.024Z,0
2017-11-03T03:16:44.674Z,0
2017-11-03T03:17:45.328Z,0
2017-11-03T03:18:45.307Z,0
2017-11-03T03:19:45.292Z,0
2017-11-03T03:20:45.605Z,0
2017-11-03T03:21:45.605Z,0
2017-11-03T03:22:45.241Z,0
2017-11-03T03:23:45.224Z,0
2017-11-03T03:24:45.221Z,0
2017-11-03T03:25:44.858Z,0
2017-11-03T03:26:45.175Z,0
2017-11-03T03:27:45.493Z,0
2017-11-03T03:28:45.478Z,0
2017-11-03T03:29:45.458Z,0
2017-11-03T03:30:44.786Z,0
2017-11-03T03:31:45.430Z,0
2017-11-03T03:32:45.085Z,0
2017-11-03T03:33:44.398Z,0
2017-11-03T03:34:44.721Z,0
2017-11-03T03:35:44.705Z,0
2017-11-03T03:36:44.692Z,0
2017-11-03T03:37:45.343Z,0
2017-11-03T03:38:44.984Z,0
2017-11-03T03:39:44.970Z,0
2017-11-03T03:40:44.620Z,0
2017-11-03T03:41:45.278Z,0
2017-11-03T03:42:44.922Z,0
2017-11-03T03:43:44.917Z,0
2017-11-03T03:44:44.562Z,0
2017-11-03T03:45:45.217Z,0
2017-11-03T03:46:45.195Z,0
2017-11-03T03:47:44.834Z,0
2017-11-03T03:48:44.820Z,0
2017-11-03T03:49:44.810Z,0
2017-11-03T03:50:44.791Z,0
2017-11-03T03:51:44.451Z,0
2017-11-03T03:52:44.762Z,0
2017-11-03T03:53:45.078Z,0
2017-11-03T03:54:44.397Z,0
2017-11-03T03:55:44.374Z,0
2017-11-03T03:56:44.361Z,0
2017-11-03T03:57:44.676Z,0
2017-11-03T03:58:44.332Z,0
2017-11-03T03:59:44.643Z,0
2017-11-03T04:00:44.629Z,0
2017-11-03T04:01:44.946Z,0
2017-11-03T04:02:44.941Z,0
2017-11-03T04:03:44.924Z,0
2017-11-03T04:04:44.244Z,0
2017-11-03T04:05:44.213Z,0
2017-11-03T04:06:44.868Z,0
2017-11-03T04:07:44.845Z,0
2017-11-03T04:08:44.504Z,0
2017-11-03T04:09:44.199Z,0
2017-11-03T04:10:44.134Z,0
2017-11-03T04:11:44.454Z,0
2017-11-03T04:12:44.098Z,0
2017-11-03T04:13:44.416Z,0
2017-11-03T04:14:44.405Z,0
2017-11-03T04:15:44.720Z,0
2017-11-03T04:16:44.387Z,0
2017-11-03T04:17:44.357Z,0
2017-11-03T04:18:44.675Z,0
2017-11-03T04:19:43.990Z,0
2017-11-03T04:20:43.981Z,0
2017-11-03T04:21:44.294Z,0
2017-11-03T04:22:43.952Z,0
2017-11-03T04:23:44.268Z,0
2017-11-03T04:24:44.257Z,0
2017-11-03T04:25:43.885Z,0
2017-11-03T04:26:44.553Z,0
2017-11-03T04:27:43.855Z,0
2017-11-03T04:28:44.184Z,0
2017-11-03T04:29:43.825Z,0
2017-11-03T04:30:44.161Z,0
2017-11-03T04:31:44.128Z,0
2017-11-03T04:32:43.782Z,0
2017-11-03T04:33:43.760Z,0
2017-11-03T04:34:44.074Z,0
2017-11-03T04:35:44.399Z,0
2017-11-03T04:36:43.721Z,0
2017-11-03T04:37:43.370Z,0
2017-11-03T04:38:44.019Z,0
2017-11-03T04:39:43.994Z,0
2017-11-03T04:40:43.989Z,0
2017-11-03T04:41:43.641Z,0
2017-11-03T04:42:43.941Z,0
2017-11-03T04:43:43.263Z,0
2017-11-03T04:44:43.576Z,0
2017-11-03T04:45:44.237Z,0
2017-11-03T04:46:43.546Z,0
2017-11-03T04:47:43.866Z,0
2017-11-03T04:48:44.188Z,0
2017-11-03T04:49:43.503Z,0
2017-11-03T04:50:43.818Z,0
2017-11-03T04:51:43.129Z,0
2017-11-03T04:52:44.119Z,0
2017-11-03T04:53:43.768Z,0
2017-11-03T04:54:44.122Z,0
2017-11-03T04:55:43.459Z,0
2017-11-03T04:56:44.055Z,0
2017-11-03T04:57:43.366Z,0
2017-11-03T04:58:43.357Z,0
2017-11-03T04:59:43.329Z,0
2017-11-03T05:00:43.650Z,0
2017-11-03T05:01:43.641Z,0
2017-11-03T05:02:43.284Z,0
2017-11-03T05:03:43.264Z,0
2017-11-03T05:04:43.251Z,0
2017-11-03T05:05:43.236Z,0
2017-11-03T05:06:43.544Z,0
2017-11-03T05:07:43.532Z,0
2017-11-03T05:08:43.521Z,0
2017-11-03T05:09:43.178Z,0
2017-11-03T05:10:43.496Z,0
2017-11-03T05:11:43.481Z,0
2017-11-03T05:12:43.128Z,0
2017-11-03T05:13:43.431Z,0
2017-11-03T05:14:43.752Z,0
2017-11-03T05:15:43.065Z,0
2017-11-03T05:16:43.725Z,0
2017-11-03T05:17:43.369Z,0
2017-11-03T05:18:43.352Z,0
2017-11-03T05:19:43.337Z,0
2017-11-03T05:20:42.983Z,0
2017-11-03T05:21:43.310Z,0
2017-11-03T05:22:42.949Z,0
2017-11-03T05:23:43.611Z,0
2017-11-03T05:24:43.272Z,0
2017-11-03T05:25:43.564Z,0
2017-11-03T05:26:42.552Z,0
2017-11-03T05:27:42.545Z,0
2017-11-03T05:28:42.845Z,0
2017-11-03T05:29:43.170Z,0
2017-11-03T05:30:43.156Z,0
2017-11-03T05:31:42.800Z,0
2017-11-03T05:32:43.460Z,0
2017-11-03T05:33:42.769Z,0
2017-11-03T05:34:42.751Z,0
2017-11-03T05:35:43.404Z,0
2017-11-03T05:36:42.394Z,0
2017-11-03T05:37:43.035Z,0
2017-11-03T05:38:43.218Z,0
2017-11-03T05:39:42.998Z,0
2017-11-03T05:40:42.981Z,0
2017-11-03T05:41:42.968Z,0
2017-11-03T05:42:42.955Z,0
2017-11-03T05:43:42.938Z,0
2017-11-03T05:44:43.256Z,0
2017-11-03T05:45:42.907Z,0
2017-11-03T05:46:42.890Z,0
2017-11-03T05:47:42.876Z,0
2017-11-03T05:48:42.518Z,0
2017-11-03T05:49:43.175Z,0
2017-11-03T05:50:43.160Z,0
2017-11-03T05:51:42.800Z,0
2017-11-03T05:52:42.796Z,0
2017-11-03T05:53:42.776Z,0
2017-11-03T05:54:42.759Z,0
2017-11-03T05:55:42.734Z,0
2017-11-03T05:56:43.059Z,4
2017-11-03T05:57:42.037Z,0
2017-11-03T05:58:42.022Z,4
2017-11-03T05:59:43.009Z,4
2017-11-03T06:00:42.672Z,4
2017-11-03T06:01:42.639Z,0
2017-11-03T06:02:42.956Z,4
2017-11-03T06:03:42.615Z,4
2017-11-03T06:04:42.932Z,4
2017-11-03T06:05:42.571Z,4
2017-11-03T06:06:42.551Z,8
2017-11-03T06:07:42.543Z,8
2017-11-03T06:08:42.526Z,8
2017-11-03T06:09:42.844Z,12
2017-11-03T06:10:42.490Z,16
2017-11-03T06:11:42.151Z,16
2017-11-03T06:12:42.788Z,20
2017-11-03T06:13:42.768Z,24
2017-11-03T06:14:42.424Z,28
2017-11-03T06:15:42.077Z,32
2017-11-03T06:16:42.731Z,32
2017-11-03T06:17:41.706Z,40
2017-11-03T06:18:42.368Z,48
2017-11-03T06:19:42.681Z,48
2017-11-03T06:20:41.990Z,56
2017-11-03T06:21:42.307Z,64
2017-11-03T06:22:41.959Z,68
2017-11-03T06:23:42.611Z,64
2017-11-03T06:24:41.591Z,72
2017-11-03T06:25:42.572Z,88
2017-11-03T06:26:41.890Z,100
2017-11-03T06:27:41.884Z,112
2017-11-03T06:28:42.522Z,120
2017-11-03T06:29:42.174Z,128
2017-11-03T06:30:42.505Z,128
2017-11-03T06:31:41.808Z,132
2017-11-03T06:32:41.787Z,128
2017-11-03T06:33:42.115Z,144
2017-11-03T06:34:41.433Z,160
2017-11-03T06:35:42.429Z,180
2017-11-03T06:36:42.062Z,196
2017-11-03T06:37:42.048Z,196
2017-11-03T06:38:42.031Z,208
2017-11-03T06:39:42.017Z,236
2017-11-03T06:40:41.661Z,252
2017-11-03T06:41:41.995Z,260
2017-11-03T06:42:41.628Z,272
2017-11-03T06:43:42.299Z,304
2017-11-03T06:44:41.931Z,312
2017-11-03T06:45:41.908Z,268
2017-11-03T06:46:41.560Z,232
2017-11-03T06:47:42.212Z,276
2017-11-03T06:48:41.862Z,356
2017-11-03T06:49:42.184Z,404
2017-11-03T06:50:41.522Z,424
2017-11-03T06:51:41.817Z,436
2017-11-03T06:52:42.132Z,424
2017-11-03T06:53:41.784Z,364
2017-11-03T06:54:41.428Z,296
2017-11-03T06:55:41.074Z,276
2017-11-03T06:56:41.721Z,316
2017-11-03T06:57:41.378Z,408
2017-11-03T06:58:41.697Z,504
2017-11-03T06:59:42.024Z,540
2017-11-03T07:00:42.002Z,548
2017-11-03T07:01:41.648Z,540
2017-11-03T07:02:41.292Z,520
2017-11-03T07:03:41.611Z,512
2017-11-03T07:04:41.264Z,528
2017-11-03T07:05:41.245Z,564
2017-11-03T07:06:41.242Z,592
2017-11-03T07:07:41.215Z,600
2017-11-03T07:08:41.536Z,588
2017-11-03T07:09:41.865Z,576
2017-11-03T07:10:41.831Z,636
2017-11-03T07:11:41.485Z,704
2017-11-03T07:12:41.128Z,732
2017-11-03T07:13:41.112Z,736
2017-11-03T07:14:41.113Z,732
2017-11-03T07:15:41.090Z,728
2017-11-03T07:16:41.404Z,736
2017-11-03T07:17:41.745Z,756
2017-11-03T07:18:40.701Z,752
2017-11-03T07:19:41.684Z,760
2017-11-03T07:20:41.724Z,824
2017-11-03T07:21:40.986Z,856
2017-11-03T07:22:41.312Z,884
2017-11-03T07:23:41.612Z,912
2017-11-03T07:24:41.268Z,944
2017-11-03T07:25:41.246Z,960
2017-11-03T07:26:40.574Z,972
2017-11-03T07:27:41.268Z,984
2017-11-03T07:28:41.195Z,1000
2017-11-03T07:29:40.847Z,1020
2017-11-03T07:30:41.548Z,1052
2017-11-03T07:31:40.817Z,1088
2017-11-03T07:32:41.146Z,1132
2017-11-03T07:33:40.455Z,1164
2017-11-03T07:34:40.769Z,1188
2017-11-03T07:35:40.758Z,1200
2017-11-03T07:36:41.408Z,1172
2017-11-03T07:37:40.386Z,1120
2017-11-03T07:38:41.571Z,1080
2017-11-03T07:39:41.354Z,1084
2017-11-03T07:40:41.365Z,1172
2017-11-03T07:41:40.661Z,1240
2017-11-03T07:42:41.069Z,1256
2017-11-03T07:43:40.951Z,1252
2017-11-03T07:44:40.607Z,1244
2017-11-03T07:45:40.919Z,1244
2017-11-03T07:46:40.910Z,1260
2017-11-03T07:47:40.891Z,1284
2017-11-03T07:48:40.868Z,1308
2017-11-03T07:49:40.857Z,1328
2017-11-03T07:50:40.849Z,1348
2017-11-03T07:51:40.492Z,1360
2017-11-03T07:52:40.821Z,1380
2017-11-03T07:53:40.456Z,1388
2017-11-03T07:54:40.457Z,1376
2017-11-03T07:55:40.430Z,1300
2017-11-03T07:56:41.089Z,1216
2017-11-03T07:57:41.080Z,1240
2017-11-03T07:58:41.047Z,1356
2017-11-03T07:59:40.359Z,1492
2017-11-03T08:00:41.215Z,1588
2017-11-03T08:01:40.330Z,1616
2017-11-03T08:02:40.322Z,1528
2017-11-03T08:03:40.648Z,1392
2017-11-03T08:04:40.630Z,1536
2017-11-03T08:05:40.597Z,1824
2017-11-03T08:06:40.588Z,1940
2017-11-03T08:07:40.915Z,1932
2017-11-03T08:08:40.560Z,1828
2017-11-03T08:09:40.539Z,1808
2017-11-03T08:10:40.524Z,1940
2017-11-03T08:11:40.220Z,2052
2017-11-03T08:12:40.491Z,2084
2017-11-03T08:13:40.478Z,2056
2017-11-03T08:14:40.793Z,1976
2017-11-03T08:15:40.460Z,1992
2017-11-03T08:16:40.427Z,2204
2017-11-03T08:17:40.414Z,2320
2017-11-03T08:18:40.445Z,2356
2017-11-03T08:19:40.376Z,2364
2017-11-03T08:20:40.361Z,2356
2017-11-03T08:21:40.012Z,2372
2017-11-03T08:22:40.674Z,2396
2017-11-03T08:23:40.641Z,2412
2017-11-03T08:24:40.628Z,2428
2017-11-03T08:25:40.284Z,2512
2017-11-03T08:26:40.601Z,2616
2017-11-03T08:27:39.921Z,2656
2017-11-03T08:28:40.570Z,2688
2017-11-03T08:29:39.883Z,2708
2017-11-03T08:30:39.874Z,2732
2017-11-03T08:31:39.851Z,2752
2017-11-03T08:32:40.170Z,2740
2017-11-03T08:33:40.584Z,2772
2017-11-03T08:34:39.815Z,2820
2017-11-03T08:35:39.796Z,2864
2017-11-03T08:36:39.775Z,2884
2017-11-03T08:37:40.443Z,2900
2017-11-03T08:38:39.742Z,2924
2017-11-03T08:39:39.397Z,2916
2017-11-03T08:40:40.056Z,2836
2017-11-03T08:41:40.027Z,2804
2017-11-03T08:42:40.349Z,2852
2017-11-03T08:43:40.490Z,2908
2017-11-03T08:44:39.659Z,2948
2017-11-03T08:45:39.985Z,2964
2017-11-03T08:46:39.629Z,2956
2017-11-03T08:47:39.941Z,2940
2017-11-03T08:48:39.308Z,2944
2017-11-03T08:49:39.908Z,2988
2017-11-03T08:50:40.226Z,3048
2017-11-03T08:51:39.868Z,3120
2017-11-03T08:52:39.529Z,3160
2017-11-03T08:53:39.841Z,3212
2017-11-03T08:54:39.158Z,3288
2017-11-03T08:55:39.482Z,3312
2017-11-03T08:56:39.798Z,3296
2017-11-03T08:57:39.448Z,3316
2017-11-03T08:58:39.483Z,3376
2017-11-03T08:59:39.424Z,3460
2017-11-03T09:00:39.737Z,3528
2017-11-03T09:01:39.716Z,3536
2017-11-03T09:02:39.370Z,3520
2017-11-03T09:03:39.704Z,3504
2017-11-03T09:04:39.347Z,3468
2017-11-03T09:05:39.659Z,3476
2017-11-03T09:06:38.978Z,3472
2017-11-03T09:07:39.966Z,3468
2017-11-03T09:08:39.947Z,3496
2017-11-03T09:09:39.608Z,3520
2017-11-03T09:10:39.915Z,3468
2017-11-03T09:11:39.905Z,3436
2017-11-03T09:12:39.213Z,3416
2017-11-03T09:13:39.594Z,3432
2017-11-03T09:14:39.867Z,3468
2017-11-03T09:15:39.511Z,3464
2017-11-03T09:16:39.824Z,3500
2017-11-03T09:17:38.816Z,3524
2017-11-03T09:18:39.457Z,3536
2017-11-03T09:19:39.116Z,3536
2017-11-03T09:20:39.106Z,3544
2017-11-03T09:21:39.427Z,3588
2017-11-03T09:22:39.402Z,3612
2017-11-03T09:23:39.436Z,3640
2017-11-03T09:24:39.378Z,3680
2017-11-03T09:25:39.370Z,3700
2017-11-03T09:26:38.671Z,3740
2017-11-03T09:27:39.326Z,3792
2017-11-03T09:28:39.308Z,3832
2017-11-03T09:29:39.327Z,3820
2017-11-03T09:30:39.636Z,3768
2017-11-03T09:31:39.619Z,3812
2017-11-03T09:32:39.248Z,3952
2017-11-03T09:33:38.905Z,3900
2017-11-03T09:34:39.551Z,3736
2017-11-03T09:35:38.869Z,4008
2017-11-03T09:36:39.182Z,3924
2017-11-03T09:37:38.841Z,3944
2017-11-03T09:38:39.374Z,3948
2017-11-03T09:39:38.828Z,4068
2017-11-03T09:40:39.136Z,4180
2017-11-03T09:41:39.111Z,4264
2017-11-03T09:42:38.764Z,4356
2017-11-03T09:43:38.752Z,4404
2017-11-03T09:44:38.406Z,4452
2017-11-03T09:45:38.389Z,4476
2017-11-03T09:46:39.047Z,4572
2017-11-03T09:47:39.027Z,4624
2017-11-03T09:48:39.021Z,4732
2017-11-03T09:49:38.660Z,4792
2017-11-03T09:50:38.979Z,4800
2017-11-03T09:51:38.965Z,4792
2017-11-03T09:52:38.948Z,4808
2017-11-03T09:53:38.946Z,4828
2017-11-03T09:54:38.924Z,4856
2017-11-03T09:55:38.910Z,4888
2017-11-03T09:56:38.560Z,4872
2017-11-03T09:57:38.893Z,4840
2017-11-03T09:58:38.866Z,4800
2017-11-03T09:59:38.863Z,4844
2017-11-03T10:00:38.836Z,4920
2017-11-03T10:01:38.825Z,4988
2017-11-03T10:02:38.833Z,5028
2017-11-03T10:03:39.134Z,5040
2017-11-03T10:04:39.127Z,5112
2017-11-03T10:05:38.768Z,5180
2017-11-03T10:06:38.417Z,5244
2017-11-03T10:07:38.731Z,5308
2017-11-03T10:08:39.057Z,5312
2017-11-03T10:09:38.753Z,5396
2017-11-03T10:10:38.689Z,5496
2017-11-03T10:11:38.682Z,5576
2017-11-03T10:12:38.996Z,5636
2017-11-03T10:13:38.316Z,5720
2017-11-03T10:14:38.307Z,5816
2017-11-03T10:15:37.951Z,5960
2017-11-03T10:16:38.610Z,6184
2017-11-03T10:17:38.919Z,6452
2017-11-03T10:18:38.580Z,6700
2017-11-03T10:19:38.588Z,6812
2017-11-03T10:20:38.882Z,6948
2017-11-03T10:21:38.529Z,7040
2017-11-03T10:22:37.846Z,7048
2017-11-03T10:23:38.174Z,7092
2017-11-03T10:24:37.825Z,7144
2017-11-03T10:25:38.472Z,7156
2017-11-03T10:26:38.457Z,7116
2017-11-03T10:27:38.118Z,7184
2017-11-03T10:28:38.097Z,7216
2017-11-03T10:29:38.415Z,7208
2017-11-03T10:30:38.400Z,7144
2017-11-03T10:31:38.058Z,7032
2017-11-03T10:32:38.039Z,7016
2017-11-03T10:33:38.030Z,7084
2017-11-03T10:34:38.224Z,7112
2017-11-03T10:35:38.342Z,7072
2017-11-03T10:36:37.651Z,7008
2017-11-03T10:37:38.651Z,6988
2017-11-03T10:38:38.296Z,7008
2017-11-03T10:39:38.282Z,6980
2017-11-03T10:40:38.605Z,6816
2017-11-03T10:41:38.584Z,6772
2017-11-03T10:42:38.247Z,6808
2017-11-03T10:43:37.884Z,6704
2017-11-03T10:44:37.876Z,6620
2017-11-03T10:45:38.195Z,6632
2017-11-03T10:46:38.185Z,6640
2017-11-03T10:47:38.180Z,6572
2017-11-03T10:48:38.159Z,6452
2017-11-03T10:49:38.468Z,6216
2017-11-03T10:50:37.787Z,5696
2017-11-03T10:51:38.114Z,5408
2017-11-03T10:52:38.443Z,5732
2017-11-03T10:53:38.083Z,5924
2017-11-03T10:54:38.420Z,5608
2017-11-03T10:55:38.388Z,5252
2017-11-03T10:56:38.377Z,4768
2017-11-03T10:57:38.361Z,5224
2017-11-03T10:58:38.021Z,5116
2017-11-03T10:59:38.000Z,5508
2017-11-03T11:00:38.001Z,5676
2017-11-03T11:01:37.979Z,5788
2017-11-03T11:02:37.965Z,5888
2017-11-03T11:03:37.947Z,6008
2017-11-03T11:04:37.931Z,6404
2017-11-03T11:05:37.247Z,6324
2017-11-03T11:06:37.600Z,5988
2017-11-03T11:07:37.895Z,6024
2017-11-03T11:08:37.878Z,6308
2017-11-03T11:09:37.539Z,6408
2017-11-03T11:10:37.856Z,6292
2017-11-03T11:11:37.836Z,6280
2017-11-03T11:12:37.155Z,6404
2017-11-03T11:13:38.147Z,6456
2017-11-03T11:14:37.795Z,6380
2017-11-03T11:15:37.831Z,6488
2017-11-03T11:16:37.766Z,6736
2017-11-03T11:17:37.095Z,6852
2017-11-03T11:18:37.075Z,6572
2017-11-03T11:19:37.393Z,6216
2017-11-03T11:20:38.050Z,6244
2017-11-03T11:21:37.694Z,6520
2017-11-03T11:22:37.685Z,6500
2017-11-03T11:23:38.010Z,6348
2017-11-03T11:24:37.993Z,6260
2017-11-03T11:25:37.649Z,6248
2017-11-03T11:26:37.651Z,6116
2017-11-03T11:27:37.287Z,5916
2017-11-03T11:28:37.604Z,5740
2017-11-03T11:29:37.260Z,5756
2017-11-03T11:30:37.290Z,5732
2017-11-03T11:31:37.566Z,5596
2017-11-03T11:32:37.553Z,5968
2017-11-03T11:33:37.203Z,6596
2017-11-03T11:34:37.530Z,6672
2017-11-03T11:35:37.509Z,6716
2017-11-03T11:36:37.505Z,6764
2017-11-03T11:37:37.820Z,6788
2017-11-03T11:38:38.013Z,6900
2017-11-03T11:39:37.465Z,7088
2017-11-03T11:40:37.448Z,7264
2017-11-03T11:41:37.434Z,7420
2017-11-03T11:42:37.084Z,7756
2017-11-03T11:43:36.734Z,8116
2017-11-03T11:44:37.726Z,8252
2017-11-03T11:45:37.051Z,8188
2017-11-03T11:46:37.358Z,7788
2017-11-03T11:47:37.013Z,7708
2017-11-03T11:48:37.000Z,7924
2017-11-03T11:49:37.659Z,7948
2017-11-03T11:50:37.312Z,7872
2017-11-03T11:51:37.301Z,7928
2017-11-03T11:52:37.288Z,8096
2017-11-03T11:53:37.606Z,8136
2017-11-03T11:54:36.927Z,8064
2017-11-03T11:55:36.578Z,7828
2017-11-03T11:56:37.229Z,7664
2017-11-03T11:57:37.218Z,7524
2017-11-03T11:58:36.866Z,7540
2017-11-03T11:59:36.853Z,7352
2017-11-03T12:00:36.848Z,6936
2017-11-03T12:01:37.492Z,6576
2017-11-03T12:02:36.814Z,6456
2017-11-03T12:03:37.130Z,6084
2017-11-03T12:04:37.129Z,6068
2017-11-03T12:05:37.441Z,6256
2017-11-03T12:06:36.476Z,6656
2017-11-03T12:07:37.445Z,7172
2017-11-03T12:08:36.396Z,7140
2017-11-03T12:09:37.410Z,6540
2017-11-03T12:10:36.706Z,5816
2017-11-03T12:11:37.030Z,5480
2017-11-03T12:12:37.011Z,5772
2017-11-03T12:13:37.004Z,6116
2017-11-03T12:14:36.657Z,6132
2017-11-03T12:15:36.987Z,5704
2017-11-03T12:16:37.295Z,5196
2017-11-03T12:17:37.279Z,5008
2017-11-03T12:18:37.277Z,5092
2017-11-03T12:19:36.588Z,5000
2017-11-03T12:20:36.577Z,4988
2017-11-03T12:21:36.951Z,5348
2017-11-03T12:22:36.880Z,5800
2017-11-03T12:23:36.550Z,5768
2017-11-03T12:24:36.528Z,5628
2017-11-03T12:25:37.189Z,5688
2017-11-03T12:26:36.500Z,5656
2017-11-03T12:27:36.495Z,5520
2017-11-03T12:28:36.810Z,5380
2017-11-03T12:29:36.461Z,5404
2017-11-03T12:30:36.443Z,5496
2017-11-03T12:31:37.094Z,5492
2017-11-03T12:32:36.425Z,5508
2017-11-03T12:33:36.739Z,5532
2017-11-03T12:34:36.383Z,5540
2017-11-03T12:35:36.720Z,5428
2017-11-03T12:36:36.028Z,5380
2017-11-03T12:37:36.362Z,5344
2017-11-03T12:38:36.005Z,5412
2017-11-03T12:39:36.318Z,5696
2017-11-03T12:40:36.308Z,5928
2017-11-03T12:41:36.647Z,6104
2017-11-03T12:42:36.280Z,6548
2017-11-03T12:43:36.263Z,6756
2017-11-03T12:44:36.591Z,6436
2017-11-03T12:45:36.580Z,6136
2017-11-03T12:46:36.560Z,5684
2017-11-03T12:47:36.875Z,5576
2017-11-03T12:48:36.541Z,5684
2017-11-03T12:49:35.851Z,5600
2017-11-03T12:50:36.511Z,5312
2017-11-03T12:51:36.156Z,5372
2017-11-03T12:52:36.827Z,4640
2017-11-03T12:53:36.479Z,3652
2017-11-03T12:54:36.449Z,3060
2017-11-03T12:55:36.114Z,2944
2017-11-03T12:56:36.095Z,2908
2017-11-03T12:57:36.415Z,2768
2017-11-03T12:58:36.396Z,2584
2017-11-03T12:59:35.713Z,2704
2017-11-03T13:00:36.047Z,2960
2017-11-03T13:01:36.686Z,3160
2017-11-03T13:02:36.345Z,3620
2017-11-03T13:03:35.991Z,4252
2017-11-03T13:04:36.660Z,4632
2017-11-03T13:05:35.968Z,5172
2017-11-03T13:06:36.621Z,5968
2017-11-03T13:07:36.606Z,6512
2017-11-03T13:08:35.924Z,7192
2017-11-03T13:09:36.612Z,7900
2017-11-03T13:10:35.893Z,7760
2017-11-03T13:11:35.547Z,7084
2017-11-03T13:12:35.864Z,6380
2017-11-03T13:13:36.516Z,6140
2017-11-03T13:14:36.174Z,6196
2017-11-03T13:15:36.491Z,6260
2017-11-03T13:16:35.809Z,6196
2017-11-03T13:17:35.853Z,6308
2017-11-03T13:18:36.469Z,6716
2017-11-03T13:19:36.102Z,7040
2017-11-03T13:20:36.096Z,7180
2017-11-03T13:21:35.418Z,7328
2017-11-03T13:22:36.065Z,7936
2017-11-03T13:23:35.718Z,7432
2017-11-03T13:24:35.710Z,7084
2017-11-03T13:25:36.022Z,7064
2017-11-03T13:26:35.678Z,7072
2017-11-03T13:27:35.865Z,6984
2017-11-03T13:28:35.656Z,6900
2017-11-03T13:29:35.980Z,6808
2017-11-03T13:30:35.621Z,6656
2017-11-03T13:31:35.276Z,6284
2017-11-03T13:32:36.274Z,5800
2017-11-03T13:33:35.924Z,5304
2017-11-03T13:34:36.238Z,5212
2017-11-03T13:35:36.227Z,4872
2017-11-03T13:36:35.543Z,4728
2017-11-03T13:37:35.533Z,4536
2017-11-03T13:38:36.262Z,4472
2017-11-03T13:39:35.512Z,4444
2017-11-03T13:40:35.839Z,4456
2017-11-03T13:41:35.483Z,4588
2017-11-03T13:42:35.466Z,4548
2017-11-03T13:43:35.799Z,4580
2017-11-03T13:44:36.113Z,4616
2017-11-03T13:45:35.767Z,4676
2017-11-03T13:46:35.743Z,4768
2017-11-03T13:47:35.739Z,4828
2017-11-03T13:48:35.396Z,4724
2017-11-03T13:49:35.708Z,4560
2017-11-03T13:50:35.364Z,4384
2017-11-03T13:51:35.682Z,4148
2017-11-03T13:52:35.669Z,3816
2017-11-03T13:53:35.649Z,3440
2017-11-03T13:54:35.640Z,3408
2017-11-03T13:55:35.637Z,3376
2017-11-03T13:56:35.283Z,3396
2017-11-03T13:57:35.666Z,3512
2017-11-03T13:58:35.933Z,3568